Puerto Escondido International Airport
MMPS : now visible

Airfield :











YOU CAN JOIN US ON...

 
LOGIN :

Register | Disclaimer

   EN    FR    IT 

 









Legend :    VFR   Marginal VFR   IFR   Intensive IFR   Very Intensive IFR
Visi :
Ceiling :
>= 8 km
>= 3000ft
5 to 8 km
1000 to 3000 ft
1500m to 5 km
500 to 1000 ft
800 to 1500m
200 to 500 ft
< 800m
< 200 ft
Symbols :   Thunderstorms  Fog  Heavy snow  Heavy precipitations  Wind > 20 kt







- Airport Elevation : 294 ft
- IATA code : PXM


MMPS - Puerto Escondido International

CURRENT METAR :
  • 260445Z 00000KT 10SM SKC 26/22 A2992 RMK HZY MSG TX MMMX

EXPIRED METARs :
  • 260349Z 00000KT 10SM SKC 27/23 A2991 RMK HZY MSG TX MMMX
  • 260253Z 00000KT 10SM SKC 29/21 A2988 RMK HZY MSG TX MMMX

TAF TAF MMPS
Valid from the 26 at 06:00 until the 27 at 06:00 UTC


260447Z 2606/2706 00000KT P6SM SKC
TEMPO 2612/2615 6SM -RA SCT020CB
FM261800 13010KT P6SM SCT025 SCT250
TEMPO 2622/2702 6SM -RA BKN020CB
MMFR FIR / North America



MET'MAP, your aeronautical weather chart ! - Copyright ORBIFLY December 2007 - Disclaimer

ORBIFLY MET'MAP TEAM :

Programming & Development : Alexandra Zaïnal
Concept & Development : Baudouin d'Aumeries
Co-Development & Prog : Marc-Olivier Méhu
Technical & hardware support : Manuel Goepfert

Contact : metmap@orbifly.com




SOURCES & CREDITS :

   NOAA       Earth
Advisory